Terminal Aerodrome Forecast
Issued by NWS

Home | Current Version | Previous Version | Text Only | Print | Product List | Glossary On
Versions: 1 2 3 4 5 6 7 8 9 10 11 12 13 14
000
FTUS46 KPDT 042320
TAFYKM
TAF
KYKM 042320Z 0500/0524 24015G25KT P6SM FEW080
     FM050600 29008KT P6SM SCT060 SCT250
     FM051800 26012KT P6SM SCT080=

USA.gov is the U.S. government's official web portal to all federal, state and local government web resources and services.